createdAt,value
2024-04-18T00:00:19.933Z,1006.05
2024-04-18T00:01:19.890Z,1006.09
2024-04-18T00:02:19.834Z,1006.11
2024-04-18T00:03:19.897Z,1006.16
2024-04-18T00:04:20.042Z,1006.14
2024-04-18T00:05:19.878Z,1006.15
2024-04-18T00:06:19.868Z,1006.16
2024-04-18T00:07:19.807Z,1006.16
2024-04-18T00:08:19.774Z,1006.18
2024-04-18T00:09:19.788Z,1006.18
2024-04-18T00:10:19.758Z,1006.19
2024-04-18T00:11:19.778Z,1006.18
2024-04-18T00:12:19.735Z,1006.21
2024-04-18T00:13:19.760Z,1006.17
2024-04-18T00:14:19.704Z,1006.19
2024-04-18T00:15:19.705Z,1006.21
2024-04-18T00:16:19.673Z,1006.23
2024-04-18T00:17:19.788Z,1006.20
2024-04-18T00:18:20.020Z,1006.23
2024-04-18T00:19:19.734Z,1006.22
2024-04-18T00:20:19.627Z,1006.23
2024-04-18T00:21:19.648Z,1006.17
2024-04-18T00:22:19.604Z,1006.20
2024-04-18T00:23:19.599Z,1006.17
2024-04-18T00:24:19.645Z,1006.21
2024-04-18T00:25:19.603Z,1006.19
2024-04-18T00:26:19.566Z,1006.21
2024-04-18T00:27:19.598Z,1006.20
2024-04-18T00:28:19.534Z,1006.21
2024-04-18T00:29:19.582Z,1006.23
2024-04-18T00:30:19.544Z,1006.27
2024-04-18T00:31:19.506Z,1006.28
2024-04-18T00:32:19.549Z,1006.30
2024-04-18T00:33:19.548Z,1006.29
2024-04-18T00:34:19.476Z,1006.31
2024-04-18T00:35:19.496Z,1006.25
2024-04-18T00:36:19.496Z,1006.27
2024-04-18T00:37:19.437Z,1006.29
2024-04-18T00:38:19.432Z,1006.28
2024-04-18T00:39:19.455Z,1006.28
2024-04-18T00:40:19.410Z,1006.29
2024-04-18T00:41:19.442Z,1006.30
2024-04-18T00:42:19.416Z,1006.33
2024-04-18T00:43:19.373Z,1006.29
2024-04-18T00:44:19.367Z,1006.30
2024-04-18T00:45:19.386Z,1006.30
2024-04-18T00:46:19.337Z,1006.37
2024-04-18T00:47:19.356Z,1006.35
2024-04-18T00:48:19.412Z,1006.33
2024-04-18T00:49:19.356Z,1006.35
2024-04-18T00:50:19.312Z,1006.34
2024-04-18T00:51:19.331Z,1006.34
2024-04-18T00:52:19.317Z,1006.36
2024-04-18T00:53:19.258Z,1006.38
2024-04-18T00:54:19.282Z,1006.34
2024-04-18T00:55:19.244Z,1006.36
2024-04-18T00:56:19.246Z,1006.40
2024-04-18T00:57:19.405Z,1006.42
2024-04-18T00:58:19.252Z,1006.38
2024-04-18T00:59:19.185Z,1006.37
2024-04-18T01:00:19.232Z,1006.39
2024-04-18T01:01:19.244Z,1006.40
2024-04-18T01:02:19.163Z,1006.42
2024-04-18T01:03:19.255Z,1006.43
2024-04-18T01:04:19.252Z,1006.41
2024-04-18T01:05:19.162Z,1006.46
2024-04-18T01:06:19.133Z,1006.44
2024-04-18T01:07:19.121Z,1006.44
2024-04-18T01:08:19.091Z,1006.41
2024-04-18T01:09:19.157Z,1006.46
2024-04-18T01:10:19.072Z,1006.44
2024-04-18T01:11:19.098Z,1006.43
2024-04-18T01:12:19.099Z,1006.43
2024-04-18T01:13:19.027Z,1006.42
2024-04-18T01:14:19.035Z,1006.43
2024-04-18T01:15:19.030Z,1006.49
2024-04-18T01:16:19.003Z,1006.51
2024-04-18T01:17:19.014Z,1006.46
2024-04-18T01:18:18.996Z,1006.46
2024-04-18T01:19:18.978Z,1006.46
2024-04-18T01:20:18.972Z,1006.47
2024-04-18T01:21:18.989Z,1006.49
2024-04-18T01:22:18.964Z,1006.47
2024-04-18T01:23:18.934Z,1006.50
2024-04-18T01:24:18.962Z,1006.49
2024-04-18T01:25:18.935Z,1006.56
2024-04-18T01:26:18.938Z,1006.58
2024-04-18T01:27:18.951Z,1006.60
2024-04-18T01:28:18.862Z,1006.65
2024-04-18T01:29:18.868Z,1006.62
2024-04-18T01:30:18.896Z,1006.62
2024-04-18T01:31:18.834Z,1006.66
2024-04-18T01:32:18.811Z,1006.66
2024-04-18T01:33:18.924Z,1006.63
2024-04-18T01:34:18.898Z,1006.64
2024-04-18T01:35:18.779Z,1006.65
2024-04-18T01:36:18.862Z,1006.62
2024-04-18T01:37:18.756Z,1006.63
2024-04-18T01:38:18.756Z,1006.66
2024-04-18T01:39:18.764Z,1006.67
2024-04-18T01:40:18.906Z,1006.71
2024-04-18T01:41:18.726Z,1006.71
2024-04-18T01:42:18.752Z,1006.71
2024-04-18T01:43:18.748Z,1006.69
2024-04-18T01:44:18.667Z,1006.68
2024-04-18T01:45:18.710Z,1006.71
2024-04-18T01:46:18.653Z,1006.75
2024-04-18T01:47:18.714Z,1006.71
2024-04-18T01:48:18.819Z,1006.74
2024-04-18T01:49:18.666Z,1006.78
2024-04-18T01:50:18.611Z,1006.78
2024-04-18T01:51:18.644Z,1006.76
2024-04-18T01:52:18.616Z,1006.81
2024-04-18T01:53:18.598Z,1006.82
2024-04-18T01:54:18.581Z,1006.82
2024-04-18T01:55:18.573Z,1006.82
2024-04-18T01:56:18.548Z,1006.82
2024-04-18T01:57:18.564Z,1006.86
2024-04-18T01:58:18.531Z,1006.83
2024-04-18T01:59:18.529Z,1006.89
2024-04-18T02:00:18.612Z,1006.87
2024-04-18T02:01:18.492Z,1006.87
2024-04-18T02:02:18.472Z,1006.87
2024-04-18T02:03:18.525Z,1006.86
2024-04-18T02:04:18.619Z,1006.86
2024-04-18T02:05:18.446Z,1006.84
2024-04-18T02:06:18.468Z,1006.89
2024-04-18T02:07:18.416Z,1006.86
2024-04-18T02:08:18.415Z,1006.92
2024-04-18T02:09:18.454Z,1006.87
2024-04-18T02:10:18.390Z,1006.94
2024-04-18T02:11:18.450Z,1006.92
2024-04-18T02:12:18.395Z,1006.88
2024-04-18T02:13:18.352Z,1006.89
2024-04-18T02:14:18.352Z,1006.92
2024-04-18T02:15:18.345Z,1006.91
2024-04-18T02:16:18.314Z,1006.96
2024-04-18T02:17:18.324Z,1006.92
2024-04-18T02:18:18.341Z,1006.94
2024-04-18T02:19:18.286Z,1006.98
2024-04-18T02:20:18.284Z,1006.93
2024-04-18T02:21:18.303Z,1006.96
2024-04-18T02:22:18.262Z,1006.96
2024-04-18T02:23:18.244Z,1006.95
2024-04-18T02:24:18.250Z,1006.94
2024-04-18T02:25:18.232Z,1006.96
2024-04-18T02:26:18.199Z,1006.94
2024-04-18T02:27:18.242Z,1006.94
2024-04-18T02:28:18.188Z,1006.94
2024-04-18T02:29:18.172Z,1006.93
2024-04-18T02:30:18.239Z,1006.95
2024-04-18T02:31:18.147Z,1006.97
2024-04-18T02:32:18.195Z,1006.99
2024-04-18T02:33:18.330Z,1006.97
2024-04-18T02:34:18.095Z,1006.97
2024-04-18T02:35:18.101Z,1006.98
2024-04-18T02:36:18.111Z,1007.00
2024-04-18T02:37:18.069Z,1007.02
2024-04-18T02:38:18.072Z,1007.03
2024-04-18T02:39:18.109Z,1007.04
2024-04-18T02:40:18.034Z,1007.02
2024-04-18T02:41:18.056Z,1007.03
2024-04-18T02:42:18.073Z,1007.05
2024-04-18T02:43:18.009Z,1007.05
2024-04-18T02:44:17.989Z,1007.02
2024-04-18T02:45:18.044Z,1007.06
2024-04-18T02:46:17.985Z,1007.09
2024-04-18T02:47:17.998Z,1007.09
2024-04-18T02:48:18.012Z,1007.13
2024-04-18T02:49:17.952Z,1007.11
2024-04-18T02:50:17.932Z,1007.11
2024-04-18T02:51:17.966Z,1007.20
2024-04-18T02:52:17.928Z,1007.18
2024-04-18T02:53:17.897Z,1007.16
2024-04-18T02:54:17.894Z,1007.19
2024-04-18T02:55:17.908Z,1007.17
2024-04-18T02:56:17.881Z,1007.19
2024-04-18T02:57:17.920Z,1007.25
2024-04-18T02:58:17.851Z,1007.19
2024-04-18T02:59:17.862Z,1007.24
2024-04-18T03:00:17.914Z,1007.18
2024-04-18T03:01:17.994Z,1007.27
2024-04-18T03:02:17.816Z,1007.23
2024-04-18T03:03:17.834Z,1007.26
2024-04-18T03:04:17.821Z,1007.24
2024-04-18T03:05:17.774Z,1007.25
2024-04-18T03:06:17.805Z,1007.25
2024-04-18T03:07:17.738Z,1007.26
2024-04-18T03:08:17.739Z,1007.28
2024-04-18T03:09:17.735Z,1007.28
2024-04-18T03:10:18.450Z,1007.30
2024-04-18T03:11:17.753Z,1007.33
2024-04-18T03:12:17.691Z,1007.33
2024-04-18T03:13:17.688Z,1007.34
2024-04-18T03:14:17.687Z,1007.33
2024-04-18T03:15:17.706Z,1007.37
2024-04-18T03:16:17.638Z,1007.37
2024-04-18T03:17:17.683Z,1007.38
2024-04-18T03:18:17.716Z,1007.40
2024-04-18T03:19:17.658Z,1007.38
2024-04-18T03:20:17.588Z,1007.39
2024-04-18T03:21:17.599Z,1007.35
2024-04-18T03:22:17.570Z,1007.39
2024-04-18T03:23:17.562Z,1007.36
2024-04-18T03:24:17.576Z,1007.36
2024-04-18T03:25:17.531Z,1007.41
2024-04-18T03:26:17.556Z,1007.40
2024-04-18T03:27:17.557Z,1007.32
2024-04-18T03:28:17.501Z,1007.38
2024-04-18T03:29:17.504Z,1007.37
2024-04-18T03:30:17.501Z,1007.44
2024-04-18T03:31:17.456Z,1007.42
2024-04-18T03:32:17.519Z,1007.41
2024-04-18T03:33:17.564Z,1007.43
2024-04-18T03:34:17.459Z,1007.47
2024-04-18T03:35:17.419Z,1007.47
2024-04-18T03:36:17.456Z,1007.45
2024-04-18T03:37:17.512Z,1007.47
2024-04-18T03:38:17.390Z,1007.45
2024-04-18T03:39:17.455Z,1007.46
2024-04-18T03:40:17.392Z,1007.52
2024-04-18T03:41:17.386Z,1007.52
2024-04-18T03:42:17.356Z,1007.54
2024-04-18T03:43:17.338Z,1007.59
2024-04-18T03:44:17.347Z,1007.60
2024-04-18T03:45:17.342Z,1007.60
2024-04-18T03:46:18.018Z,1007.61
2024-04-18T03:47:17.314Z,1007.63
2024-04-18T03:48:17.386Z,1007.67
2024-04-18T03:49:17.280Z,1007.63
2024-04-18T03:50:17.282Z,1007.67
2024-04-18T03:51:17.248Z,1007.67
2024-04-18T03:52:17.230Z,1007.72
2024-04-18T03:53:17.206Z,1007.70
2024-04-18T03:54:17.240Z,1007.74
2024-04-18T03:55:17.293Z,1007.71
2024-04-18T03:56:17.185Z,1007.71
2024-04-18T03:57:17.193Z,1007.75
2024-04-18T03:58:17.177Z,1007.78
2024-04-18T03:59:17.165Z,1007.78
2024-04-18T04:00:17.191Z,1007.82
2024-04-18T04:01:17.302Z,1007.84
2024-04-18T04:02:17.137Z,1007.79
2024-04-18T04:03:17.280Z,1007.85
2024-04-18T04:04:17.240Z,1007.82
2024-04-18T04:05:17.075Z,1007.86
2024-04-18T04:06:17.130Z,1007.89
2024-04-18T04:07:17.069Z,1007.91
2024-04-18T04:08:17.074Z,1007.87
2024-04-18T04:09:17.063Z,1007.92
2024-04-18T04:10:17.018Z,1007.94
2024-04-18T04:11:17.122Z,1007.94
2024-04-18T04:12:17.042Z,1007.94
2024-04-18T04:13:17.001Z,1007.94
2024-04-18T04:14:16.985Z,1007.95
2024-04-18T04:15:16.993Z,1007.95
2024-04-18T04:16:16.970Z,1007.98
2024-04-18T04:17:16.965Z,1008.01
2024-04-18T04:18:16.991Z,1007.99
2024-04-18T04:19:16.990Z,1008.01
2024-04-18T04:20:16.915Z,1008.07
2024-04-18T04:21:16.954Z,1008.01
2024-04-18T04:22:16.922Z,1008.07
2024-04-18T04:23:16.875Z,1008.05
2024-04-18T04:24:16.946Z,1008.05
2024-04-18T04:25:16.856Z,1008.07
2024-04-18T04:26:16.865Z,1008.11
2024-04-18T04:27:16.958Z,1008.15
2024-04-18T04:28:16.855Z,1008.12
2024-04-18T04:29:16.793Z,1008.14
2024-04-18T04:30:16.875Z,1008.15
2024-04-18T04:31:16.782Z,1008.16
2024-04-18T04:32:16.879Z,1008.19
2024-04-18T04:33:16.867Z,1008.22
2024-04-18T04:34:16.816Z,1008.27
2024-04-18T04:35:16.776Z,1008.28
2024-04-18T04:36:16.743Z,1008.28
2024-04-18T04:37:16.890Z,1008.32
2024-04-18T04:38:16.727Z,1008.35
2024-04-18T04:39:16.754Z,1008.31
2024-04-18T04:40:16.688Z,1008.36
2024-04-18T04:41:16.682Z,1008.41
2024-04-18T04:42:16.807Z,1008.42
2024-04-18T04:43:16.711Z,1008.43
2024-04-18T04:44:16.660Z,1008.48
2024-04-18T04:45:16.754Z,1008.46
2024-04-18T04:46:16.650Z,1008.45
2024-04-18T04:47:16.640Z,1008.44
2024-04-18T04:48:16.694Z,1008.50
2024-04-18T04:49:16.727Z,1008.52
2024-04-18T04:50:16.605Z,1008.47
2024-04-18T04:51:16.601Z,1008.50
2024-04-18T04:52:16.551Z,1008.48
2024-04-18T04:53:16.571Z,1008.51
2024-04-18T04:54:16.541Z,1008.57
2024-04-18T04:55:16.634Z,1008.51
2024-04-18T04:56:16.512Z,1008.54
2024-04-18T04:57:16.566Z,1008.57
2024-04-18T04:58:16.479Z,1008.58
2024-04-18T04:59:16.479Z,1008.63
2024-04-18T05:00:16.498Z,1008.63
2024-04-18T05:01:16.473Z,1008.68
2024-04-18T05:02:16.486Z,1008.71
2024-04-18T05:03:16.482Z,1008.76
2024-04-18T05:04:16.431Z,1008.73
2024-04-18T05:05:16.439Z,1008.78
2024-04-18T05:06:16.415Z,1008.78
2024-04-18T05:07:16.391Z,1008.84
2024-04-18T05:08:16.385Z,1008.84
2024-04-18T05:09:16.370Z,1008.89
2024-04-18T05:10:16.381Z,1008.87
2024-04-18T05:11:16.356Z,1008.88
2024-04-18T05:12:16.361Z,1008.86
2024-04-18T05:13:16.311Z,1008.84
2024-04-18T05:14:16.323Z,1008.88
2024-04-18T05:15:16.331Z,1008.88
2024-04-18T05:16:16.301Z,1008.88
2024-04-18T05:17:16.274Z,1008.88
2024-04-18T05:18:16.350Z,1008.92
2024-04-18T05:19:16.246Z,1008.94
2024-04-18T05:20:16.261Z,1009.00
2024-04-18T05:21:16.281Z,1009.01
2024-04-18T05:22:16.226Z,1008.98
2024-04-18T05:23:16.213Z,1008.99
2024-04-18T05:24:16.235Z,1009.03
2024-04-18T05:25:16.189Z,1009.04
2024-04-18T05:26:16.231Z,1009.08
2024-04-18T05:27:16.195Z,1009.09
2024-04-18T05:28:16.146Z,1009.11
2024-04-18T05:29:16.132Z,1009.10
2024-04-18T05:30:16.233Z,1009.15
2024-04-18T05:31:16.123Z,1009.22
2024-04-18T05:32:16.112Z,1009.24
2024-04-18T05:33:16.109Z,1009.22
2024-04-18T05:34:16.083Z,1009.25
2024-04-18T05:35:16.079Z,1009.26
2024-04-18T05:36:16.085Z,1009.26
2024-04-18T05:37:16.989Z,1009.35
2024-04-18T05:38:16.056Z,1009.35
2024-04-18T05:39:16.066Z,1009.34
2024-04-18T05:40:16.021Z,1009.32
2024-04-18T05:41:16.027Z,1009.36
2024-04-18T05:42:15.989Z,1009.35
2024-04-18T05:43:15.988Z,1009.38
2024-04-18T05:44:15.968Z,1009.33
2024-04-18T05:45:15.969Z,1009.37
2024-04-18T05:46:15.995Z,1009.40
2024-04-18T05:47:16.018Z,1009.41
2024-04-18T05:48:15.923Z,1009.41
2024-04-18T05:49:15.929Z,1009.40
2024-04-18T05:50:15.910Z,1009.40
2024-04-18T05:51:15.892Z,1009.40
2024-04-18T05:52:15.900Z,1009.38
2024-04-18T05:53:15.870Z,1009.43
2024-04-18T05:54:15.855Z,1009.37
2024-04-18T05:55:15.851Z,1009.44
2024-04-18T05:56:15.847Z,1009.41
2024-04-18T05:57:15.854Z,1009.44
2024-04-18T05:58:15.809Z,1009.46
2024-04-18T05:59:15.797Z,1009.50
2024-04-18T06:00:15.800Z,1009.50
2024-04-18T06:01:15.920Z,1009.47
2024-04-18T06:02:15.802Z,1009.48
2024-04-18T06:03:15.738Z,1009.48
2024-04-18T06:04:15.771Z,1009.53
2024-04-18T06:05:15.759Z,1009.56
2024-04-18T06:06:15.842Z,1009.50
2024-04-18T06:07:15.723Z,1009.54
2024-04-18T06:08:15.696Z,1009.59
2024-04-18T06:09:15.688Z,1009.62
2024-04-18T06:10:15.687Z,1009.62
2024-04-18T06:11:15.705Z,1009.68
2024-04-18T06:12:15.675Z,1009.67
2024-04-18T06:13:15.641Z,1009.67
2024-04-18T06:14:15.633Z,1009.67
2024-04-18T06:15:15.609Z,1009.65
2024-04-18T06:16:15.648Z,1009.65
2024-04-18T06:17:15.638Z,1009.65
2024-04-18T06:18:15.590Z,1009.67
2024-04-18T06:19:15.595Z,1009.66
2024-04-18T06:20:15.567Z,1009.69
2024-04-18T06:21:15.624Z,1009.68
2024-04-18T06:22:15.630Z,1009.66
2024-04-18T06:23:15.556Z,1009.67
2024-04-18T06:24:15.528Z,1009.65
2024-04-18T06:25:15.585Z,1009.67
2024-04-18T06:26:15.527Z,1009.65
2024-04-18T06:27:15.468Z,1009.66
2024-04-18T06:28:15.531Z,1009.67
2024-04-18T06:29:15.536Z,1009.72
2024-04-18T06:30:15.461Z,1009.75
2024-04-18T06:31:15.496Z,1009.67
2024-04-18T06:32:15.419Z,1009.69
2024-04-18T06:33:15.544Z,1009.69
2024-04-18T06:34:15.418Z,1009.72
2024-04-18T06:35:15.393Z,1009.75
2024-04-18T06:36:15.433Z,1009.75
2024-04-18T06:37:15.391Z,1009.73
2024-04-18T06:38:15.369Z,1009.75
2024-04-18T06:39:15.414Z,1009.78
2024-04-18T06:40:15.336Z,1009.77
2024-04-18T06:41:15.344Z,1009.84
2024-04-18T06:42:15.320Z,1009.81
2024-04-18T06:43:15.315Z,1009.82
2024-04-18T06:44:15.300Z,1009.85
2024-04-18T06:45:15.268Z,1009.84
2024-04-18T06:46:15.257Z,1009.84
2024-04-18T06:47:15.274Z,1009.84
2024-04-18T06:48:15.349Z,1009.82
2024-04-18T06:49:15.237Z,1009.86
2024-04-18T06:50:15.235Z,1009.82
2024-04-18T06:51:15.201Z,1009.85
2024-04-18T06:52:15.199Z,1009.83
2024-04-18T06:53:15.200Z,1009.80
2024-04-18T06:54:15.199Z,1009.77
2024-04-18T06:55:15.165Z,1009.77
2024-04-18T06:56:15.150Z,1009.86
2024-04-18T06:57:15.129Z,1009.79
2024-04-18T06:58:15.135Z,1009.83
2024-04-18T06:59:15.139Z,1009.86
2024-04-18T07:00:15.099Z,1009.86
2024-04-18T07:01:15.293Z,1009.88
2024-04-18T07:02:15.077Z,1009.94
2024-04-18T07:03:15.195Z,1009.94
2024-04-18T07:04:15.180Z,1009.89
2024-04-18T07:05:15.102Z,1009.82
2024-04-18T07:06:15.035Z,1009.90
2024-04-18T07:07:15.028Z,1009.90
2024-04-18T07:08:15.062Z,1009.93
2024-04-18T07:09:15.010Z,1009.91
2024-04-18T07:10:14.999Z,1009.95
2024-04-18T07:11:15.019Z,1009.93
2024-04-18T07:12:14.967Z,1009.97
2024-04-18T07:13:14.965Z,1010.00
2024-04-18T07:14:14.971Z,1010.00
2024-04-18T07:15:14.944Z,1010.05
2024-04-18T07:16:14.952Z,1010.06
2024-04-18T07:17:14.916Z,1010.05
2024-04-18T07:18:14.967Z,1010.03
2024-04-18T07:19:15.015Z,1010.07
2024-04-18T07:20:14.874Z,1010.07
2024-04-18T07:21:14.866Z,1010.08
2024-04-18T07:22:14.891Z,1010.11
2024-04-18T07:23:14.842Z,1010.16
2024-04-18T07:24:14.865Z,1010.17
2024-04-18T07:25:14.827Z,1010.24
2024-04-18T07:26:14.827Z,1010.18
2024-04-18T07:27:14.817Z,1010.26
2024-04-18T07:28:14.796Z,1010.25
2024-04-18T07:29:14.781Z,1010.22
2024-04-18T07:30:14.796Z,1010.24
2024-04-18T07:31:14.753Z,1010.20
2024-04-18T07:32:14.739Z,1010.20
2024-04-18T07:33:14.921Z,1010.19
2024-04-18T07:34:14.787Z,1010.23
2024-04-18T07:35:14.744Z,1010.22
2024-04-18T07:36:14.754Z,1010.20
2024-04-18T07:37:14.689Z,1010.22
2024-04-18T07:38:14.676Z,1010.21
2024-04-18T07:39:14.662Z,1010.23
2024-04-18T07:40:14.661Z,1010.22
2024-04-18T07:41:14.641Z,1010.22
2024-04-18T07:42:14.620Z,1010.23
2024-04-18T07:43:14.600Z,1010.23
2024-04-18T07:44:14.612Z,1010.24
2024-04-18T07:45:14.614Z,1010.19
2024-04-18T07:46:14.620Z,1010.18
2024-04-18T07:47:14.619Z,1010.23
2024-04-18T07:48:14.617Z,1010.23
2024-04-18T07:49:14.586Z,1010.24
2024-04-18T07:50:14.564Z,1010.27
2024-04-18T07:51:14.510Z,1010.29
2024-04-18T07:52:17.239Z,1010.29
2024-04-18T07:53:14.515Z,1010.32
2024-04-18T07:54:14.495Z,1010.33
2024-04-18T07:55:14.482Z,1010.38
2024-04-18T07:56:14.919Z,1010.41
2024-04-18T07:57:15.157Z,1010.39
2024-04-18T07:58:14.890Z,1010.42
2024-04-18T07:59:15.256Z,1010.41
2024-04-18T08:00:15.296Z,1010.40
2024-04-18T08:01:15.740Z,1010.45
2024-04-18T08:02:15.800Z,1010.46
2024-04-18T08:03:15.961Z,1010.45
2024-04-18T08:05:16.173Z,1010.46
2024-04-18T08:06:16.229Z,1010.45
2024-04-18T08:07:17.129Z,1010.47
2024-04-18T08:08:16.335Z,1010.48
2024-04-18T08:09:17.304Z,1010.51
2024-04-18T08:10:17.990Z,1010.47
2024-04-18T08:12:24.174Z,1010.52
2024-04-18T08:13:17.687Z,1010.53
2024-04-18T08:14:17.200Z,1010.60
2024-04-18T08:15:17.691Z,1010.64
2024-04-18T08:16:15.588Z,1010.60
2024-04-18T08:17:14.349Z,1010.66
2024-04-18T08:18:14.225Z,1010.62
2024-04-18T08:19:14.211Z,1010.64
2024-04-18T08:20:14.188Z,1010.66
2024-04-18T08:21:14.227Z,1010.65
2024-04-18T08:22:14.172Z,1010.63
2024-04-18T08:23:14.360Z,1010.67
2024-04-18T08:24:14.187Z,1010.67
2024-04-18T08:25:14.204Z,1010.70
2024-04-18T08:26:14.147Z,1010.70
2024-04-18T08:27:14.151Z,1010.73
2024-04-18T08:28:14.129Z,1010.72
2024-04-18T08:29:14.097Z,1010.76
2024-04-18T08:30:14.105Z,1010.73
2024-04-18T08:31:14.091Z,1010.80
2024-04-18T08:32:14.074Z,1010.83
2024-04-18T08:33:14.274Z,1010.86
2024-04-18T08:34:18.077Z,1010.83
2024-04-18T08:35:14.027Z,1010.84
2024-04-18T08:36:14.104Z,1010.86
2024-04-18T08:37:14.003Z,1010.86
2024-04-18T08:38:13.984Z,1010.83
2024-04-18T08:39:13.976Z,1010.82
2024-04-18T08:40:13.969Z,1010.82
2024-04-18T08:41:13.980Z,1010.84
2024-04-18T08:42:14.095Z,1010.78
2024-04-18T08:43:13.932Z,1010.80
2024-04-18T08:44:13.938Z,1010.77
2024-04-18T08:45:13.919Z,1010.81
2024-04-18T08:46:13.916Z,1010.83
2024-04-18T08:47:13.958Z,1010.80
2024-04-18T08:48:13.994Z,1010.75
2024-04-18T08:49:13.933Z,1010.77
2024-04-18T08:50:13.859Z,1010.73
2024-04-18T08:51:13.869Z,1010.83
2024-04-18T08:52:13.862Z,1010.79
2024-04-18T08:53:13.826Z,1010.78
2024-04-18T08:54:13.846Z,1010.83
2024-04-18T08:55:13.815Z,1010.76
2024-04-18T08:56:13.787Z,1010.86
2024-04-18T08:57:13.767Z,1010.89
2024-04-18T08:58:13.775Z,1010.85
2024-04-18T08:59:13.915Z,1010.86
2024-04-18T09:00:13.813Z,1010.85
2024-04-18T09:01:13.748Z,1010.87
2024-04-18T09:02:13.794Z,1010.86
2024-04-18T09:03:13.751Z,1010.86
2024-04-18T09:04:13.723Z,1010.88
2024-04-18T09:05:13.750Z,1010.84
2024-04-18T09:06:13.716Z,1010.89
2024-04-18T09:07:13.663Z,1010.90
2024-04-18T09:08:13.654Z,1010.88
2024-04-18T09:09:13.660Z,1010.87
2024-04-18T09:10:13.762Z,1010.84
2024-04-18T09:11:13.649Z,1010.89
2024-04-18T09:12:13.610Z,1010.89
2024-04-18T09:13:13.600Z,1010.93
2024-04-18T09:14:13.568Z,1010.88
2024-04-18T09:15:13.601Z,1010.91
2024-04-18T09:16:13.596Z,1010.96
2024-04-18T09:17:13.556Z,1010.91
2024-04-18T09:18:13.666Z,1010.96
2024-04-18T09:19:14.347Z,1010.97
2024-04-18T09:20:13.517Z,1011.00
2024-04-18T09:21:13.539Z,1011.04
2024-04-18T09:22:13.505Z,1010.99
2024-04-18T09:23:13.486Z,1011.00
2024-04-18T09:24:13.518Z,1010.98
2024-04-18T09:25:13.484Z,1011.02
2024-04-18T09:26:13.444Z,1011.07
2024-04-18T09:27:13.490Z,1011.04
2024-04-18T09:28:13.422Z,1011.07
2024-04-18T09:29:13.427Z,1011.04
2024-04-18T09:30:13.471Z,1011.05
2024-04-18T09:31:15.398Z,1011.02
2024-04-18T09:32:13.414Z,1011.02
2024-04-18T09:33:13.633Z,1011.00
2024-04-18T09:34:13.383Z,1010.99
2024-04-18T09:35:13.346Z,1011.02
2024-04-18T09:36:13.353Z,1011.03
2024-04-18T09:37:13.321Z,1010.99
2024-04-18T09:38:13.329Z,1011.05
2024-04-18T09:39:13.842Z,1011.09
2024-04-18T09:40:13.287Z,1011.06
2024-04-18T09:41:13.285Z,1011.00
2024-04-18T09:42:13.300Z,1010.93
2024-04-18T09:43:13.284Z,1011.00
2024-04-18T09:44:13.248Z,1010.97
2024-04-18T09:45:13.246Z,1011.00
2024-04-18T09:46:13.238Z,1011.01
2024-04-18T09:47:13.223Z,1011.04
2024-04-18T09:48:13.408Z,1011.01
2024-04-18T09:49:13.532Z,1011.05
2024-04-18T09:50:13.187Z,1011.04
2024-04-18T09:51:13.212Z,1011.05
2024-04-18T09:52:13.172Z,1011.05
2024-04-18T09:53:13.139Z,1011.05
2024-04-18T09:54:13.154Z,1011.07
2024-04-18T09:55:13.116Z,1011.04
2024-04-18T09:56:13.190Z,1010.98
2024-04-18T09:57:13.108Z,1011.04
2024-04-18T09:58:13.152Z,1010.89
2024-04-18T09:59:13.108Z,1010.91
2024-04-18T10:00:13.233Z,1011.00
2024-04-18T10:01:13.190Z,1010.95
2024-04-18T10:02:13.175Z,1010.98
2024-04-18T10:03:13.152Z,1011.00
2024-04-18T10:04:13.299Z,1011.01
2024-04-18T10:05:13.048Z,1010.99
2024-04-18T10:06:13.043Z,1011.02
2024-04-18T10:07:13.481Z,1011.02
2024-04-18T10:08:13.039Z,1011.04
2024-04-18T10:09:13.015Z,1011.02
2024-04-18T10:10:12.962Z,1010.98
2024-04-18T10:11:13.045Z,1011.03
2024-04-18T10:12:12.984Z,1011.04
2024-04-18T10:13:13.826Z,1011.05
2024-04-18T10:14:13.028Z,1010.99
2024-04-18T10:15:13.988Z,1011.00
2024-04-18T10:16:12.931Z,1010.99
2024-04-18T10:17:12.914Z,1011.01
2024-04-18T10:18:13.115Z,1011.04
2024-04-18T10:19:13.137Z,1011.05
2024-04-18T10:20:12.845Z,1011.06
2024-04-18T10:21:12.951Z,1011.04
2024-04-18T10:22:23.479Z,1011.05
2024-04-18T10:23:12.874Z,1011.01
2024-04-18T10:24:12.904Z,1011.05
2024-04-18T10:25:12.817Z,1011.04
2024-04-18T10:26:12.809Z,1011.01
2024-04-18T10:27:12.842Z,1010.98
2024-04-18T10:28:12.801Z,1011.01
2024-04-18T10:29:12.826Z,1011.03
2024-04-18T10:30:12.770Z,1011.03
2024-04-18T10:31:12.795Z,1011.09
2024-04-18T10:32:12.786Z,1011.04
2024-04-18T10:33:12.815Z,1011.06
2024-04-18T10:34:12.734Z,1011.09
2024-04-18T10:35:12.688Z,1011.04
2024-04-18T10:36:12.696Z,1011.05
2024-04-18T10:37:12.682Z,1011.09
2024-04-18T10:38:12.676Z,1011.11
2024-04-18T10:39:12.741Z,1011.17
2024-04-18T10:40:12.677Z,1011.15
2024-04-18T10:41:12.651Z,1011.13
2024-04-18T10:42:12.641Z,1011.19
2024-04-18T10:43:14.356Z,1011.25
2024-04-18T10:44:12.593Z,1011.14
2024-04-18T10:45:12.677Z,1011.13
2024-04-18T10:46:12.570Z,1011.16
2024-04-18T10:47:12.578Z,1011.22
2024-04-18T10:48:12.807Z,1011.17
2024-04-18T10:49:12.708Z,1011.13
2024-04-18T10:50:12.534Z,1011.12
2024-04-18T10:51:12.535Z,1011.12
2024-04-18T10:52:12.600Z,1011.16
2024-04-18T10:53:12.498Z,1011.22
2024-04-18T10:54:12.523Z,1011.19
2024-04-18T10:55:12.504Z,1011.19
2024-04-18T10:56:12.456Z,1011.20
2024-04-18T10:57:12.515Z,1011.17
2024-04-18T10:58:12.432Z,1011.16
2024-04-18T10:59:12.485Z,1011.26
2024-04-18T11:00:12.464Z,1011.23
2024-04-18T11:01:12.418Z,1011.22
2024-04-18T11:02:12.464Z,1011.28
2024-04-18T11:03:12.503Z,1011.24
2024-04-18T11:04:12.478Z,1011.33
2024-04-18T11:05:12.413Z,1011.26
2024-04-18T11:06:12.376Z,1011.26
2024-04-18T11:07:12.445Z,1011.30
2024-04-18T11:08:12.311Z,1011.24
2024-04-18T11:09:12.445Z,1011.27
2024-04-18T11:10:12.284Z,1011.24
2024-04-18T11:11:12.294Z,1011.20
2024-04-18T11:12:12.271Z,1011.22
2024-04-18T11:13:12.298Z,1011.23
2024-04-18T11:14:13.681Z,1011.21
2024-04-18T11:15:12.352Z,1011.16
2024-04-18T11:16:12.220Z,1011.14
2024-04-18T11:17:12.222Z,1011.16
2024-04-18T11:18:12.322Z,1011.14
2024-04-18T11:19:12.643Z,1011.19
2024-04-18T11:20:12.167Z,1011.18
2024-04-18T11:21:12.161Z,1011.18
2024-04-18T11:22:12.172Z,1011.20
2024-04-18T11:23:15.531Z,1011.18
2024-04-18T11:24:12.190Z,1011.16
2024-04-18T11:25:12.175Z,1011.15
2024-04-18T11:26:12.123Z,1011.15
2024-04-18T11:27:12.137Z,1011.16
2024-04-18T11:28:12.126Z,1011.19
2024-04-18T11:29:12.527Z,1011.20
2024-04-18T11:30:12.111Z,1011.18
2024-04-18T11:31:12.064Z,1011.17
2024-04-18T11:32:12.343Z,1011.19
2024-04-18T11:33:12.295Z,1011.15
2024-04-18T11:34:12.013Z,1011.18
2024-04-18T11:35:17.063Z,1011.18
2024-04-18T11:36:12.094Z,1011.18
2024-04-18T11:37:12.018Z,1011.17
2024-04-18T11:38:12.017Z,1011.16
2024-04-18T11:39:12.073Z,1011.16
2024-04-18T11:40:11.937Z,1011.18
2024-04-18T11:41:11.981Z,1011.13
2024-04-18T11:42:12.030Z,1011.13
2024-04-18T11:43:11.917Z,1011.17
2024-04-18T11:44:11.954Z,1011.19
2024-04-18T11:45:11.968Z,1011.16
2024-04-18T11:46:11.989Z,1011.14
2024-04-18T11:47:11.862Z,1011.12
2024-04-18T11:48:11.988Z,1011.15
2024-04-18T11:49:11.962Z,1011.20
2024-04-18T11:50:11.883Z,1011.21
2024-04-18T11:51:11.915Z,1011.27
2024-04-18T11:52:11.846Z,1011.27
2024-04-18T11:53:11.804Z,1011.30
2024-04-18T11:54:11.795Z,1011.30
2024-04-18T11:55:11.822Z,1011.24
2024-04-18T11:56:11.855Z,1011.28
2024-04-18T11:57:11.790Z,1011.29
2024-04-18T11:58:11.764Z,1011.25
2024-04-18T11:59:11.775Z,1011.21
2024-04-18T12:00:11.764Z,1011.18
2024-04-18T12:01:11.769Z,1011.19
2024-04-18T12:02:11.756Z,1011.21
2024-04-18T12:03:11.758Z,1011.24
2024-04-18T12:04:11.870Z,1011.23
2024-04-18T12:05:11.789Z,1011.23
2024-04-18T12:06:11.821Z,1011.20
2024-04-18T12:07:11.675Z,1011.16